Shinkomaru No.8 — JK5142 — position and weather

sailwx.info

Track history (hours):
 
Tides and Currents Weather Stations Pressure Air Temp Water Temp Dewpoint Dewpoint Depression Visibility Wind Speed Wind Dir Waves Ship Positions

Shinkomaru No.8

Last reported at 2017-Jun-26 05:29 UTC. Time now 2017-Jun-29 03:44 UTC.
Position N 34°13' E 135°01'.

Length 61 m; draft 4.4 m.

Type: Tanker. MMSI: 431400035.

Date/timePositionNaut miles runAvg speedWind from/ knotsBaromVisibWave heightAir tempDewpointWater temp
2017-Jun-26 05:29N 34°13' E 135°01'510.6
2017-Jun-26 05:00N 34°14' E 135°07'0 0.3
2017-Jun-26 04:23N 34°14' E 135°07'0 0.0
2017-Jun-26 03:59N 34°14' E 135°07'0 0.0
2017-Jun-26 03:29N 34°14' E 135°07'0 0.0
2017-Jun-26 02:59N 34°14' E 135°07'0 0.0
2017-Jun-26 02:29N 34°14' E 135°07'0 0.0
2017-Jun-26 01:59N 34°14' E 135°07'0 0.0
2017-Jun-26 01:29N 34°14' E 135°07'0 0.0
2017-Jun-26 00:59N 34°14' E 135°07'0 0.0
2017-Jun-26 00:29N 34°14' E 135°07'0 0.0
2017-Jun-25 23:59N 34°14' E 135°07'0 0.0
2017-Jun-25 23:23N 34°14' E 135°07'0 0.0
2017-Jun-25 22:53N 34°14' E 135°07'0 0.0
2017-Jun-25 22:29N 34°14' E 135°07'0 0.2
2017-Jun-25 22:00N 34°14' E 135°07'2 3.7
2017-Jun-25 21:30N 34°13' E 135°08'0 0.5
2017-Jun-25 20:59N 34°13' E 135°09'0 0.0
2017-Jun-25 20:23N 34°13' E 135°09'0 0.0
2017-Jun-25 19:59N 34°13' E 135°09'0 0.1
2017-Jun-25 19:24N 34°13' E 135°09'0 0.0
2017-Jun-25 18:16N 34°13' E 135°09'0 0.0
2017-Jun-25 17:51N 34°13' E 135°09'0 0.0
2017-Jun-25 17:13N 34°13' E 135°09'0 0.0
2017-Jun-25 16:29N 34°13' E 135°09'0 0.0
2017-Jun-25 15:32N 34°13' E 135°09'0 0.0
2017-Jun-25 15:30N 34°13' E 135°09'0 0.0
2017-Jun-25 14:53N 34°13' E 135°09'0 0.0
2017-Jun-25 13:57N 34°13' E 135°09'0 0.0
2017-Jun-25 12:51N 34°13' E 135°09'0 0.0
2017-Jun-25 12:24N 34°13' E 135°09'0 0.0
2017-Jun-25 11:59N 34°13' E 135°09'0 0.0
2017-Jun-25 10:11N 34°13' E 135°09'0 0.0
2017-Jun-25 10:00N 34°13' E 135°09'0 0.0
2017-Jun-25 09:00N 34°13' E 135°09'0 0.0
2017-Jun-25 08:19N 34°13' E 135°09'0 0.0
2017-Jun-25 07:55N 34°13' E 135°09'0 0.0
2017-Jun-25 07:25N 34°13' E 135°09'0 0.0
2017-Jun-25 06:31N 34°13' E 135°09'0 0.0
2017-Jun-25 06:30N 34°13' E 135°09'1 1.2
2017-Jun-25 06:00N 34°13' E 135°08'710.2
2017-Jun-25 05:18N 34°19' E 135°04'613.0
2017-Jun-25 04:51N 34°25' E 135°03'513.2
2017-Jun-25 04:30N 34°30' E 135°03'713.7
2017-Jun-25 03:59N 34°37' E 135°02'914.4
2017-Jun-25 03:20N 34°39' E 134°51'  
2017-Jun-19 10:34N 34°41' E 134°45'111.4
2017-Jun-19 10:30N 34°41' E 134°46'611.3
2017-Jun-19 10:00N 34°38' E 134°52'911.7
2017-Jun-19 09:15N 34°37' E 135°02'312.1
2017-Jun-19 09:00N 34°35' E 135°05'611.9
2017-Jun-19 08:30N 34°29' E 135°05'612.2
2017-Jun-19 07:58N 34°23' E 135°04'711.9
2017-Jun-19 07:22N 34°16' E 135°03'3 9.5
2017-Jun-19 07:00N 34°14' E 135°07'0 0.1
2017-Jun-19 06:23N 34°14' E 135°07'0 0.0
2017-Jun-19 05:59N 34°14' E 135°07'0 0.0
2017-Jun-19 05:29N 34°14' E 135°07'0 0.0
2017-Jun-19 04:59N 34°14' E 135°07'0 0.0
2017-Jun-19 04:29N 34°14' E 135°07'0 0.0
2017-Jun-19 03:59N 34°14' E 135°07'0 0.0
2017-Jun-19 03:27N 34°14' E 135°07'0 0.0
2017-Jun-19 02:57N 34°14' E 135°07'0 0.0
2017-Jun-19 02:27N 34°14' E 135°07'0 0.0
2017-Jun-19 01:56N 34°14' E 135°07'0 0.0
2017-Jun-19 01:26N 34°14' E 135°07'0 0.0
2017-Jun-19 00:56N 34°14' E 135°07'0 0.0
2017-Jun-19 00:26N 34°14' E 135°07'0 0.0
2017-Jun-18 23:44N 34°14' E 135°07'0 0.0
2017-Jun-18 23:26N 34°14' E 135°07'0 0.0
2017-Jun-18 22:56N 34°14' E 135°07'0 0.0
2017-Jun-18 22:26N 34°14' E 135°07'0 0.1
2017-Jun-18 22:00N 34°14' E 135°07'1 1.8
2017-Jun-18 21:30N 34°15' E 135°06'0 0.0
2017-Jun-18 20:56N 34°15' E 135°06'0 0.0
2017-Jun-18 20:29N 34°15' E 135°06'0 0.1
2017-Jun-18 20:00N 34°15' E 135°06'0 0.1
2017-Jun-18 19:26N 34°15' E 135°06'0 0.1
2017-Jun-18 19:00N 34°15' E 135°06'0 0.1
2017-Jun-18 18:30N 34°15' E 135°06'0 0.0
2017-Jun-18 18:00N 34°15' E 135°06'0 0.0
2017-Jun-18 17:29N 34°15' E 135°06'0 0.0
2017-Jun-18 17:00N 34°15' E 135°06'0 0.0
2017-Jun-18 16:29N 34°15' E 135°06'0 0.1
2017-Jun-18 16:00N 34°15' E 135°06'0 0.0
2017-Jun-18 15:28N 34°15' E 135°06'0 0.0
2017-Jun-18 14:50N 34°15' E 135°06'0 0.1
2017-Jun-18 14:00N 34°15' E 135°06'611.8
2017-Jun-18 13:30N 34°13' E 134°59'  
Track history (hours):
 
Tides and Currents Weather Stations Pressure Air Temp Water Temp Dewpoint Dewpoint Depression Visibility Wind Speed Wind Dir Waves Ship Positions

Shinkomaru No.8

Last reported at 2017-Jun-26 05:29 UTC. Time now 2017-Jun-29 03:44 UTC.
Position N 34°13' E 135°01'.

Length 61 m; draft 4.4 m.

Type: Tanker. MMSI: 431400035.

Date/timePositionNaut miles runAvg speedWind from/ knotsBaromVisibWave heightAir tempDewpointWater temp
2017-Jun-26 05:29N 34°13' E 135°01'510.6
2017-Jun-26 05:00N 34°14' E 135°07'0 0.3
2017-Jun-26 04:23N 34°14' E 135°07'0 0.0
2017-Jun-26 03:59N 34°14' E 135°07'0 0.0
2017-Jun-26 03:29N 34°14' E 135°07'0 0.0
2017-Jun-26 02:59N 34°14' E 135°07'0 0.0
2017-Jun-26 02:29N 34°14' E 135°07'0 0.0
2017-Jun-26 01:59N 34°14' E 135°07'0 0.0
2017-Jun-26 01:29N 34°14' E 135°07'0 0.0
2017-Jun-26 00:59N 34°14' E 135°07'0 0.0
2017-Jun-26 00:29N 34°14' E 135°07'0 0.0
2017-Jun-25 23:59N 34°14' E 135°07'0 0.0
2017-Jun-25 23:23N 34°14' E 135°07'0 0.0
2017-Jun-25 22:53N 34°14' E 135°07'0 0.0
2017-Jun-25 22:29N 34°14' E 135°07'0 0.2
2017-Jun-25 22:00N 34°14' E 135°07'2 3.7
2017-Jun-25 21:30N 34°13' E 135°08'0 0.5
2017-Jun-25 20:59N 34°13' E 135°09'0 0.0
2017-Jun-25 20:23N 34°13' E 135°09'0 0.0
2017-Jun-25 19:59N 34°13' E 135°09'0 0.1
2017-Jun-25 19:24N 34°13' E 135°09'0 0.0
2017-Jun-25 18:16N 34°13' E 135°09'0 0.0
2017-Jun-25 17:51N 34°13' E 135°09'0 0.0
2017-Jun-25 17:13N 34°13' E 135°09'0 0.0
2017-Jun-25 16:29N 34°13' E 135°09'0 0.0
2017-Jun-25 15:32N 34°13' E 135°09'0 0.0
2017-Jun-25 15:30N 34°13' E 135°09'0 0.0
2017-Jun-25 14:53N 34°13' E 135°09'0 0.0
2017-Jun-25 13:57N 34°13' E 135°09'0 0.0
2017-Jun-25 12:51N 34°13' E 135°09'0 0.0
2017-Jun-25 12:24N 34°13' E 135°09'0 0.0
2017-Jun-25 11:59N 34°13' E 135°09'0 0.0
2017-Jun-25 10:11N 34°13' E 135°09'0 0.0
2017-Jun-25 10:00N 34°13' E 135°09'0 0.0
2017-Jun-25 09:00N 34°13' E 135°09'0 0.0
2017-Jun-25 08:19N 34°13' E 135°09'0 0.0
2017-Jun-25 07:55N 34°13' E 135°09'0 0.0
2017-Jun-25 07:25N 34°13' E 135°09'0 0.0
2017-Jun-25 06:31N 34°13' E 135°09'0 0.0
2017-Jun-25 06:30N 34°13' E 135°09'1 1.2
2017-Jun-25 06:00N 34°13' E 135°08'710.2
2017-Jun-25 05:18N 34°19' E 135°04'613.0
2017-Jun-25 04:51N 34°25' E 135°03'513.2
2017-Jun-25 04:30N 34°30' E 135°03'713.7
2017-Jun-25 03:59N 34°37' E 135°02'914.4
2017-Jun-25 03:20N 34°39' E 134°51'  
2017-Jun-19 10:34N 34°41' E 134°45'111.4
2017-Jun-19 10:30N 34°41' E 134°46'611.3
2017-Jun-19 10:00N 34°38' E 134°52'911.7
2017-Jun-19 09:15N 34°37' E 135°02'312.1
2017-Jun-19 09:00N 34°35' E 135°05'611.9
2017-Jun-19 08:30N 34°29' E 135°05'612.2
2017-Jun-19 07:58N 34°23' E 135°04'711.9
2017-Jun-19 07:22N 34°16' E 135°03'3 9.5
2017-Jun-19 07:00N 34°14' E 135°07'0 0.1
2017-Jun-19 06:23N 34°14' E 135°07'0 0.0
2017-Jun-19 05:59N 34°14' E 135°07'0 0.0
2017-Jun-19 05:29N 34°14' E 135°07'0 0.0
2017-Jun-19 04:59N 34°14' E 135°07'0 0.0
2017-Jun-19 04:29N 34°14' E 135°07'0 0.0
2017-Jun-19 03:59N 34°14' E 135°07'0 0.0
2017-Jun-19 03:27N 34°14' E 135°07'0 0.0
2017-Jun-19 02:57N 34°14' E 135°07'0 0.0
2017-Jun-19 02:27N 34°14' E 135°07'0 0.0
2017-Jun-19 01:56N 34°14' E 135°07'0 0.0
2017-Jun-19 01:26N 34°14' E 135°07'0 0.0
2017-Jun-19 00:56N 34°14' E 135°07'0 0.0
2017-Jun-19 00:26N 34°14' E 135°07'0 0.0
2017-Jun-18 23:44N 34°14' E 135°07'0 0.0
2017-Jun-18 23:26N 34°14' E 135°07'0 0.0
2017-Jun-18 22:56N 34°14' E 135°07'0 0.0
2017-Jun-18 22:26N 34°14' E 135°07'0 0.1
2017-Jun-18 22:00N 34°14' E 135°07'1 1.8
2017-Jun-18 21:30N 34°15' E 135°06'0 0.0
2017-Jun-18 20:56N 34°15' E 135°06'0 0.0
2017-Jun-18 20:29N 34°15' E 135°06'0 0.1
2017-Jun-18 20:00N 34°15' E 135°06'0 0.1
2017-Jun-18 19:26N 34°15' E 135°06'0 0.1
2017-Jun-18 19:00N 34°15' E 135°06'0 0.1
2017-Jun-18 18:30N 34°15' E 135°06'0 0.0
2017-Jun-18 18:00N 34°15' E 135°06'0 0.0
2017-Jun-18 17:29N 34°15' E 135°06'0 0.0
2017-Jun-18 17:00N 34°15' E 135°06'0 0.0
2017-Jun-18 16:29N 34°15' E 135°06'0 0.1
2017-Jun-18 16:00N 34°15' E 135°06'0 0.0
2017-Jun-18 15:28N 34°15' E 135°06'0 0.0
2017-Jun-18 14:50N 34°15' E 135°06'0 0.1
2017-Jun-18 14:00N 34°15' E 135°06'611.8
2017-Jun-18 13:30N 34°13' E 134°59'  

Dump ship's entire track history